createdAt,value
2022-11-24T00:01:26.302Z,89119.09
2022-11-24T00:04:01.849Z,89123.31
2022-11-24T00:06:30.578Z,89127.19
2022-11-24T00:08:58.622Z,89121.66
2022-11-24T00:11:28.638Z,89108.22
2022-11-24T00:13:56.157Z,89116.75
2022-11-24T00:16:28.817Z,89117.38
2022-11-24T00:18:58.670Z,89107.25
2022-11-24T00:21:27.334Z,89107.00
2022-11-24T00:23:54.939Z,89106.28
2022-11-24T00:26:27.018Z,89107.00
2022-11-24T00:28:57.957Z,89113.22
2022-11-24T00:31:28.468Z,89106.16
2022-11-24T00:33:58.285Z,89102.31
2022-11-24T00:36:26.944Z,89113.47
2022-11-24T00:38:59.404Z,89111.97
2022-11-24T00:41:27.303Z,89100.41
2022-11-24T00:43:54.791Z,89103.81
2022-11-24T00:46:23.459Z,89106.25
2022-11-24T00:48:50.814Z,89098.50
2022-11-24T00:51:19.819Z,89101.13
2022-11-24T00:53:46.612Z,89090.28
2022-11-24T00:56:13.951Z,89084.72
2022-11-24T00:58:41.437Z,89080.84
2022-11-24T01:01:14.283Z,89086.41
2022-11-24T01:03:42.034Z,89089.06
2022-11-24T01:06:12.051Z,89096.56
2022-11-24T01:08:40.003Z,89094.41
2022-11-24T01:11:18.598Z,89084.97
2022-11-24T01:13:47.759Z,89090.78
2022-11-24T01:16:22.872Z,89085.69
2022-11-24T01:18:50.098Z,89084.25
2022-11-24T01:21:17.666Z,89098.00
2022-11-24T01:23:45.167Z,89083.72
2022-11-24T01:26:16.559Z,89081.81
2022-11-24T01:28:47.089Z,89073.59
2022-11-24T01:31:15.794Z,89073.16
2022-11-24T01:33:42.717Z,89069.97
2022-11-24T01:36:09.560Z,89068.34
2022-11-24T01:38:36.304Z,89072.66
2022-11-24T01:41:12.211Z,89068.34
2022-11-24T01:43:39.310Z,89074.38
2022-11-24T01:46:31.532Z,89071.44
2022-11-24T01:49:09.150Z,89084.44
2022-11-24T01:52:00.229Z,89080.34
2022-11-24T01:54:34.105Z,89081.53
2022-11-24T01:57:24.069Z,89084.09
2022-11-24T01:59:56.215Z,89075.78
2022-11-24T02:02:25.021Z,89079.06
2022-11-24T02:04:52.597Z,89070.28
2022-11-24T02:07:19.770Z,89064.84
2022-11-24T02:09:55.028Z,89057.59
2022-11-24T02:12:24.401Z,89057.22
2022-11-24T02:14:52.433Z,89059.84
2022-11-24T02:17:19.300Z,89051.09
2022-11-24T02:19:51.465Z,89066.28
2022-11-24T02:23:10.600Z,89056.41
2022-11-24T02:26:34.641Z,89054.00
2022-11-24T02:29:02.433Z,89047.28
2022-11-24T02:31:29.369Z,89032.56
2022-11-24T02:33:56.816Z,89042.25
2022-11-24T02:36:23.722Z,89043.19
2022-11-24T02:38:50.700Z,89052.59
2022-11-24T02:41:21.911Z,89047.28
2022-11-24T02:44:01.861Z,89040.00
2022-11-24T02:46:28.799Z,89043.13
2022-11-24T02:48:55.858Z,89040.72
2022-11-24T02:51:22.791Z,89041.75
2022-11-24T02:53:49.759Z,89046.81
2022-11-24T02:56:16.868Z,89054.13
2022-11-24T02:58:43.696Z,89041.28
2022-11-24T03:01:10.525Z,89036.78
2022-11-24T03:03:37.844Z,89038.47
2022-11-24T03:06:04.966Z,89031.88
2022-11-24T03:08:31.894Z,89034.03
2022-11-24T03:10:58.734Z,89040.63
2022-11-24T03:13:25.732Z,89044.13
2022-11-24T03:15:52.664Z,89046.00
2022-11-24T03:18:19.580Z,89036.06
2022-11-24T03:20:46.557Z,89033.66
2022-11-24T03:23:13.483Z,89033.72
2022-11-24T03:25:40.295Z,89032.81
2022-11-24T03:28:07.278Z,89029.75
2022-11-24T03:30:34.049Z,89018.91
2022-11-24T03:33:00.918Z,89016.88
2022-11-24T03:35:28.103Z,89017.41
2022-11-24T03:37:54.918Z,89019.41
2022-11-24T03:40:21.906Z,89022.56
2022-11-24T03:42:48.755Z,89028.81
2022-11-24T03:45:44.965Z,89017.91
2022-11-24T03:48:02.965Z,89028.34
2022-11-24T03:50:29.915Z,89024.25
2022-11-24T03:52:56.761Z,89029.56
2022-11-24T03:55:23.490Z,89033.94
2022-11-24T03:57:50.393Z,89028.41
2022-11-24T04:00:17.850Z,89023.09
2022-11-24T04:02:44.784Z,89018.00
2022-11-24T04:05:11.789Z,89032.03
2022-11-24T04:07:38.794Z,89032.56
2022-11-24T04:10:06.793Z,89036.19
2022-11-24T04:12:33.864Z,89036.66
2022-11-24T04:15:00.683Z,89023.16
2022-11-24T04:17:28.658Z,89021.94
2022-11-24T04:19:55.630Z,89020.53
2022-11-24T04:22:22.546Z,89029.72
2022-11-24T04:24:49.567Z,89023.25
2022-11-24T04:27:16.585Z,89025.94
2022-11-24T04:29:43.606Z,89023.97
2022-11-24T04:32:10.417Z,89014.59
2022-11-24T04:34:37.701Z,89023.78
2022-11-24T04:37:04.675Z,89018.75
2022-11-24T04:39:31.656Z,89014.66
2022-11-24T04:41:58.567Z,89015.41
2022-11-24T04:44:25.515Z,89020.41
2022-11-24T04:46:52.602Z,89015.72
2022-11-24T04:49:19.942Z,89019.75
2022-11-24T04:51:47.152Z,89021.38
2022-11-24T04:54:14.805Z,89015.63
2022-11-24T04:56:42.571Z,89024.16
2022-11-24T04:59:14.009Z,89011.34
2022-11-24T05:01:45.418Z,89007.53
2022-11-24T05:04:14.291Z,89019.03
2022-11-24T05:06:41.337Z,89014.34
2022-11-24T05:09:08.909Z,89014.66
2022-11-24T05:11:35.802Z,89015.59
2022-11-24T05:14:02.666Z,89022.06
2022-11-24T05:16:29.562Z,89012.47
2022-11-24T05:18:56.455Z,89019.59
2022-11-24T05:21:23.381Z,89016.28
2022-11-24T05:23:50.243Z,89010.66
2022-11-24T05:26:17.296Z,89014.53
2022-11-24T05:28:44.154Z,89027.84
2022-11-24T05:31:11.223Z,89009.22
2022-11-24T05:33:38.318Z,89007.66
2022-11-24T05:36:07.034Z,89007.03
2022-11-24T05:38:34.456Z,89006.19
2022-11-24T05:41:02.963Z,89008.47
2022-11-24T05:43:29.912Z,89013.53
2022-11-24T05:46:01.046Z,89013.78
2022-11-24T05:48:28.291Z,89019.59
2022-11-24T05:50:57.098Z,89015.38
2022-11-24T05:53:24.626Z,89019.66
2022-11-24T05:55:51.505Z,89015.53
2022-11-24T05:58:18.471Z,89006.53
2022-11-24T06:00:45.371Z,89021.44
2022-11-24T06:03:12.521Z,88996.00
2022-11-24T06:05:39.711Z,88995.28
2022-11-24T06:08:06.666Z,88987.84
2022-11-24T06:10:33.591Z,88986.75
2022-11-24T06:13:05.407Z,88980.31
2022-11-24T06:15:33.115Z,88993.63
2022-11-24T06:18:00.044Z,89002.59
2022-11-24T06:20:32.307Z,89004.72
2022-11-24T06:23:00.204Z,89005.34
2022-11-24T06:25:27.873Z,89007.78
2022-11-24T06:27:55.039Z,89009.28
2022-11-24T06:30:21.936Z,89006.53
2022-11-24T06:32:50.055Z,89009.44
2022-11-24T06:35:17.531Z,88998.41
2022-11-24T06:37:44.440Z,89008.00
2022-11-24T06:40:11.486Z,89009.28
2022-11-24T06:42:38.567Z,89000.44
2022-11-24T06:45:09.027Z,88999.28
2022-11-24T06:47:36.319Z,89011.94
2022-11-24T06:50:03.294Z,89000.38
2022-11-24T06:52:30.080Z,89006.91
2022-11-24T06:54:57.048Z,88998.41
2022-11-24T06:57:24.076Z,88995.28
2022-11-24T06:59:51.276Z,89000.09
2022-11-24T07:02:18.104Z,89007.16
2022-11-24T07:04:45.019Z,88995.13
2022-11-24T07:07:11.828Z,88995.66
2022-11-24T07:09:38.830Z,89002.47
2022-11-24T07:12:06.018Z,88986.53
2022-11-24T07:14:33.314Z,88982.44
2022-11-24T07:17:00.596Z,88984.44
2022-11-24T07:19:27.547Z,88987.97
2022-11-24T07:21:54.463Z,88987.91
2022-11-24T07:24:21.443Z,88988.44
2022-11-24T07:26:48.442Z,88982.34
2022-11-24T07:29:15.321Z,88996.59
2022-11-24T07:31:42.390Z,88987.59
2022-11-24T07:34:09.545Z,88992.16
2022-11-24T07:36:36.449Z,88997.47
2022-11-24T07:39:05.974Z,88994.81
2022-11-24T07:41:33.063Z,88982.06
2022-11-24T07:44:00.082Z,88982.56
2022-11-24T07:46:27.048Z,88980.56
2022-11-24T07:48:53.941Z,88982.78
2022-11-24T07:51:20.868Z,88979.94
2022-11-24T07:53:47.769Z,88977.25
2022-11-24T07:56:14.705Z,89000.22
2022-11-24T07:58:41.718Z,88985.94
2022-11-24T08:01:14.479Z,88984.28
2022-11-24T08:03:42.619Z,88982.81
2022-11-24T08:06:29.059Z,88983.28
2022-11-24T08:08:58.075Z,88978.91
2022-11-24T08:11:25.326Z,88981.28
2022-11-24T08:13:52.464Z,88970.22
2022-11-24T08:16:20.941Z,88981.13
2022-11-24T08:18:52.732Z,88989.16
2022-11-24T08:21:20.040Z,88994.28
2022-11-24T08:23:47.340Z,88990.91
2022-11-24T08:26:16.604Z,88987.31
2022-11-24T08:28:44.646Z,88983.25
2022-11-24T08:31:14.220Z,88980.06
2022-11-24T08:33:41.881Z,88977.19
2022-11-24T08:36:12.087Z,88970.66
2022-11-24T08:38:39.655Z,88954.66
2022-11-24T08:41:12.232Z,88957.59
2022-11-24T08:43:39.339Z,88955.88
2022-11-24T08:46:09.237Z,88957.56
2022-11-24T08:48:36.240Z,88954.44
2022-11-24T08:51:08.796Z,88969.94
2022-11-24T08:53:35.550Z,88968.25
2022-11-24T08:56:03.626Z,88965.34
2022-11-24T08:58:30.830Z,88960.97
2022-11-24T09:01:05.333Z,88947.16
2022-11-24T09:03:32.264Z,88952.19
2022-11-24T09:05:59.230Z,88948.34
2022-11-24T09:08:26.100Z,88948.25
2022-11-24T09:10:53.028Z,88939.06
2022-11-24T09:13:19.960Z,88924.53
2022-11-24T09:15:46.733Z,88929.88
2022-11-24T09:18:13.719Z,88930.81
2022-11-24T09:20:40.526Z,88928.72
2022-11-24T09:23:07.437Z,88940.31
2022-11-24T09:25:37.519Z,88931.81
2022-11-24T09:28:04.483Z,88929.38
2022-11-24T09:30:31.370Z,88911.00
2022-11-24T09:32:58.499Z,88921.63
2022-11-24T09:35:25.524Z,88915.09
2022-11-24T09:37:52.462Z,88917.75
2022-11-24T09:40:19.505Z,88915.59
2022-11-24T09:43:13.606Z,88902.09
2022-11-24T09:46:05.908Z,88901.63
2022-11-24T09:48:46.614Z,88902.59
2022-11-24T09:51:15.397Z,88897.31
2022-11-24T09:54:06.213Z,88893.16
2022-11-24T09:56:35.660Z,88887.09
2022-11-24T09:59:07.525Z,88889.00
2022-11-24T10:01:36.674Z,88898.47
2022-11-24T10:04:06.593Z,88891.22
2022-11-24T10:06:44.484Z,88883.97
2022-11-24T10:09:32.934Z,88905.25
2022-11-24T10:12:27.830Z,88880.84
2022-11-24T10:15:33.004Z,88867.09
2022-11-24T10:18:21.233Z,88868.28
2022-11-24T10:21:23.097Z,88865.63
2022-11-24T10:24:08.715Z,88869.25
2022-11-24T10:26:39.370Z,88871.41
2022-11-24T10:29:21.172Z,88862.19
2022-11-24T10:31:53.884Z,88871.88
2022-11-24T10:34:30.134Z,88855.16
2022-11-24T10:37:12.321Z,88851.25
2022-11-24T10:39:59.649Z,88851.28
2022-11-24T10:42:28.845Z,88854.25
2022-11-24T10:45:15.764Z,88850.13
2022-11-24T10:47:44.366Z,88846.94
2022-11-24T10:50:28.186Z,88841.38
2022-11-24T10:53:04.555Z,88834.81
2022-11-24T10:55:56.259Z,88822.00
2022-11-24T10:58:37.655Z,88823.91
2022-11-24T11:01:14.059Z,88818.56
2022-11-24T11:04:01.264Z,88817.13
2022-11-24T11:06:29.923Z,88809.34
2022-11-24T11:09:09.086Z,88820.41
2022-11-24T11:11:37.675Z,88819.69
2022-11-24T11:14:07.385Z,88811.69
2022-11-24T11:16:54.410Z,88807.63
2022-11-24T11:19:49.101Z,88797.03
2022-11-24T11:22:31.711Z,88803.13
2022-11-24T11:25:20.874Z,88796.06
2022-11-24T11:27:48.326Z,88801.38
2022-11-24T11:36:11.609Z,88786.59
2022-11-24T11:38:40.095Z,88798.59
2022-11-24T11:41:18.282Z,88793.78
2022-11-24T11:43:47.887Z,88793.28
2022-11-24T11:46:15.757Z,88778.97
2022-11-24T11:48:45.413Z,88769.75
2022-11-24T11:51:27.547Z,88779.19
2022-11-24T11:54:16.137Z,88774.13
2022-11-24T11:56:45.875Z,88773.69
2022-11-24T11:59:24.597Z,88762.09
2022-11-24T12:02:13.116Z,88764.72
2022-11-24T12:05:05.505Z,88753.88
2022-11-24T12:07:38.729Z,88762.09
2022-11-24T12:10:20.428Z,88757.41
2022-11-24T12:13:03.813Z,88751.31
2022-11-24T12:15:52.829Z,88743.84
2022-11-24T12:18:56.680Z,88749.91
2022-11-24T12:21:26.207Z,88748.50
2022-11-24T12:24:02.770Z,88754.56
2022-11-24T12:26:58.566Z,88752.38
2022-11-24T12:29:52.623Z,88757.25
2022-11-24T12:32:29.939Z,88762.56
2022-11-24T12:35:15.845Z,88743.69
2022-11-24T12:38:27.087Z,88742.72
2022-11-24T12:44:04.074Z,88736.19
2022-11-24T12:46:50.009Z,88731.09
2022-11-24T12:49:32.943Z,88723.78
2022-11-24T12:52:32.134Z,88721.09
2022-11-24T12:55:00.108Z,88724.81
2022-11-24T12:58:11.717Z,88719.50
2022-11-24T13:00:44.161Z,88712.97
2022-11-24T13:03:22.557Z,88711.03
2022-11-24T13:06:30.043Z,88702.09
2022-11-24T13:08:57.010Z,88707.44
2022-11-24T13:11:23.978Z,88702.84
2022-11-24T13:14:06.066Z,88692.22
2022-11-24T13:16:37.023Z,88682.06
2022-11-24T13:19:17.343Z,88691.47
2022-11-24T13:21:44.168Z,88677.41
2022-11-24T13:24:17.571Z,88682.47
2022-11-24T13:26:47.825Z,88680.53
2022-11-24T13:29:38.797Z,88679.53
2022-11-24T13:32:05.544Z,88675.66
2022-11-24T13:34:41.493Z,88681.19
2022-11-24T13:37:29.044Z,88673.69
2022-11-24T13:40:14.433Z,88673.66
2022-11-24T13:43:10.731Z,88676.59
2022-11-24T13:45:41.028Z,88685.22
2022-11-24T13:48:20.790Z,88681.34
2022-11-24T13:50:51.552Z,88683.56
2022-11-24T13:53:30.773Z,88676.75
2022-11-24T13:56:21.760Z,88676.78
2022-11-24T13:58:52.454Z,88672.97
2022-11-24T14:01:20.587Z,88676.63
2022-11-24T14:06:53.507Z,88677.03
2022-11-24T14:09:34.062Z,88679.81
2022-11-24T14:12:12.200Z,88670.66
2022-11-24T14:14:39.449Z,88676.66
2022-11-24T14:17:21.836Z,88677.31
2022-11-24T14:19:51.530Z,88691.16
2022-11-24T14:22:23.178Z,88689.69
2022-11-24T14:24:58.701Z,88691.34
2022-11-24T14:27:36.067Z,88699.75
2022-11-24T14:30:17.761Z,88701.19
2022-11-24T14:33:13.830Z,88702.16
2022-11-24T14:35:52.428Z,88702.19
2022-11-24T14:38:19.371Z,88700.31
2022-11-24T14:40:52.622Z,88698.38
2022-11-24T14:43:32.810Z,88684.31
2022-11-24T14:46:10.079Z,88695.94
2022-11-24T14:48:47.833Z,88701.06
2022-11-24T14:51:17.201Z,88709.25
2022-11-24T14:53:53.370Z,88698.16
2022-11-24T14:56:27.328Z,88702.97
2022-11-24T14:58:56.275Z,88706.59
2022-11-24T15:01:33.047Z,88707.31
2022-11-24T15:07:25.315Z,88690.44
2022-11-24T15:09:57.344Z,88691.44
2022-11-24T15:12:31.980Z,88684.91
2022-11-24T15:15:05.275Z,88703.03
2022-11-24T15:17:32.955Z,88691.91
2022-11-24T15:20:10.658Z,88713.22
2022-11-24T15:22:37.716Z,88712.72
2022-11-24T15:25:28.366Z,88710.84
2022-11-24T15:27:58.074Z,88725.13
2022-11-24T15:30:25.130Z,88707.22
2022-11-24T15:32:53.854Z,88714.72
2022-11-24T15:35:21.507Z,88698.78
2022-11-24T15:37:48.815Z,88705.53
2022-11-24T15:40:15.921Z,88692.69
2022-11-24T15:42:46.707Z,88696.09
2022-11-24T15:45:13.803Z,88710.63
2022-11-24T15:47:40.772Z,88715.22
2022-11-24T15:50:08.277Z,88716.69
2022-11-24T15:52:35.410Z,88716.88
2022-11-24T15:55:05.534Z,88724.84
2022-11-24T15:57:35.517Z,88726.50
2022-11-24T16:00:02.759Z,88726.72
2022-11-24T16:02:29.877Z,88726.50
2022-11-24T16:04:56.748Z,88720.94
2022-11-24T16:07:23.757Z,88716.84
2022-11-24T16:09:50.775Z,88701.16
2022-11-24T16:12:17.677Z,88711.25
2022-11-24T16:14:44.544Z,88711.78
2022-11-24T16:17:11.480Z,88716.59
2022-11-24T16:19:41.761Z,88705.50
2022-11-24T16:22:09.111Z,88711.28
2022-11-24T16:24:36.389Z,88709.88
2022-11-24T16:27:03.470Z,88707.94
2022-11-24T16:29:32.899Z,88716.84
2022-11-24T16:32:03.978Z,88716.09
2022-11-24T16:34:30.932Z,88722.63
2022-11-24T16:36:57.773Z,88707.41
2022-11-24T16:39:24.528Z,88711.81
2022-11-24T16:41:51.473Z,88709.16
2022-11-24T16:44:18.297Z,88710.13
2022-11-24T16:46:45.140Z,88700.94
2022-11-24T16:49:12.114Z,88713.25
2022-11-24T16:51:38.916Z,88709.38
2022-11-24T16:54:05.864Z,88718.34
2022-11-24T16:56:32.747Z,88714.97
2022-11-24T16:58:59.565Z,88698.06
2022-11-24T17:01:26.445Z,88703.38
2022-11-24T17:03:54.068Z,88697.59
2022-11-24T17:06:21.186Z,88703.63
2022-11-24T17:08:48.396Z,88704.09
2022-11-24T17:11:23.518Z,88703.84
2022-11-24T17:13:54.354Z,88692.50
2022-11-24T17:16:23.283Z,88705.09
2022-11-24T17:18:50.881Z,88699.28
2022-11-24T17:21:23.643Z,88699.78
2022-11-24T17:23:55.476Z,88699.25
2022-11-24T17:26:22.459Z,88696.63
2022-11-24T17:28:49.412Z,88705.31
2022-11-24T17:31:23.899Z,88697.34
2022-11-24T17:33:53.026Z,88705.09
2022-11-24T17:36:20.379Z,88714.25
2022-11-24T17:38:47.703Z,88698.31
2022-11-24T17:41:14.549Z,88699.03
2022-11-24T17:43:41.796Z,88701.94
2022-11-24T17:46:10.575Z,88707.25
2022-11-24T17:48:38.553Z,88705.56
2022-11-24T17:51:13.475Z,88705.31
2022-11-24T17:53:42.284Z,88702.66
2022-11-24T17:56:12.993Z,88694.69
2022-11-24T17:58:42.910Z,88698.75
2022-11-24T18:01:11.499Z,88709.34
2022-11-24T18:03:42.307Z,88697.94
2022-11-24T18:06:11.787Z,88701.97
2022-11-24T18:08:41.275Z,88705.94
2022-11-24T18:11:17.396Z,88708.38
2022-11-24T18:16:33.440Z,88689.84
2022-11-24T18:19:10.669Z,88698.03
2022-11-24T18:21:42.529Z,88705.53
2022-11-24T18:24:10.913Z,88697.72
2022-11-24T18:26:40.734Z,88704.25
2022-11-24T18:29:08.092Z,88702.09
2022-11-24T18:31:35.824Z,88697.53
2022-11-24T18:34:04.983Z,88682.56
2022-11-24T18:36:33.112Z,88689.34
2022-11-24T18:39:09.634Z,88688.63
2022-11-24T18:41:36.874Z,88691.06
2022-11-24T18:44:04.628Z,88687.19
2022-11-24T18:46:31.692Z,88685.97
2022-11-24T18:48:59.646Z,88684.78
2022-11-24T18:51:26.468Z,88681.63
2022-11-24T18:53:54.040Z,88687.91
2022-11-24T18:56:21.132Z,88681.66
2022-11-24T18:58:47.933Z,88692.25
2022-11-24T19:01:17.309Z,88677.78
2022-11-24T19:03:52.401Z,88672.22
2022-11-24T19:06:22.579Z,88664.72
2022-11-24T19:08:52.518Z,88678.97
2022-11-24T19:11:27.653Z,88676.31
2022-11-24T19:13:55.300Z,88692.75
2022-11-24T19:16:23.139Z,88683.03
2022-11-24T19:18:54.377Z,88695.13
2022-11-24T19:21:22.106Z,88707.97
2022-11-24T19:23:51.817Z,88702.72
2022-11-24T19:26:22.135Z,88699.19
2022-11-24T19:28:52.406Z,88689.59
2022-11-24T19:31:21.270Z,88692.00
2022-11-24T19:33:48.268Z,88698.84
2022-11-24T19:36:18.314Z,88686.66
2022-11-24T19:38:53.863Z,88688.41
2022-11-24T19:41:22.422Z,88690.81
2022-11-24T19:43:49.789Z,88681.97
2022-11-24T19:46:18.646Z,88684.44
2022-11-24T19:48:51.079Z,88688.13
2022-11-24T19:51:20.759Z,88690.03
2022-11-24T19:53:48.506Z,88689.78
2022-11-24T19:56:23.173Z,88684.25
2022-11-24T19:58:51.284Z,88673.63
2022-11-24T20:01:29.236Z,88690.81
2022-11-24T20:03:59.198Z,88681.88
2022-11-24T20:06:28.968Z,88684.03
2022-11-24T20:08:58.025Z,88684.50
2022-11-24T20:11:25.063Z,88677.03
2022-11-24T20:13:51.927Z,88682.03
2022-11-24T20:16:24.300Z,88681.63
2022-11-24T20:18:51.150Z,88684.47
2022-11-24T20:21:22.683Z,88680.00
2022-11-24T20:24:01.449Z,88679.31
2022-11-24T20:26:38.297Z,88687.72
2022-11-24T20:29:05.883Z,88684.81
2022-11-24T20:31:35.947Z,88688.69
2022-11-24T20:34:04.842Z,88678.16
2022-11-24T20:36:33.582Z,88678.69
2022-11-24T20:39:02.450Z,88677.25
2022-11-24T20:41:32.510Z,88671.69
2022-11-24T20:44:02.025Z,88688.78
2022-11-24T20:46:32.410Z,88686.94
2022-11-24T20:49:00.175Z,88676.19
2022-11-24T20:51:32.146Z,88679.63
2022-11-24T20:54:01.342Z,88684.38
2022-11-24T20:56:31.012Z,88685.78
2022-11-24T20:58:58.520Z,88691.19
2022-11-24T21:01:36.844Z,88698.16
2022-11-24T21:04:06.164Z,88694.53
2022-11-24T21:06:33.433Z,88688.03
2022-11-24T21:09:04.033Z,88694.19
2022-11-24T21:11:32.231Z,88698.47
2022-11-24T21:13:59.705Z,88692.69
2022-11-24T21:16:28.299Z,88682.47
2022-11-24T21:18:58.784Z,88673.59
2022-11-24T21:21:28.220Z,88675.38
2022-11-24T21:23:55.079Z,88673.72
2022-11-24T21:26:22.113Z,88666.53
2022-11-24T21:28:49.009Z,88676.19
2022-11-24T21:31:18.707Z,88681.41
2022-11-24T21:33:51.214Z,88675.50
2022-11-24T21:36:26.236Z,88679.41
2022-11-24T21:38:55.660Z,88685.53
2022-11-24T21:41:24.122Z,88692.63
2022-11-24T21:43:52.743Z,88687.75
2022-11-24T21:46:19.764Z,88684.03
2022-11-24T21:48:46.838Z,88692.84
2022-11-24T21:51:16.384Z,88699.75
2022-11-24T21:53:46.978Z,88682.19
2022-11-24T21:56:19.133Z,88685.31
2022-11-24T21:58:56.930Z,88683.63
2022-11-24T22:01:28.125Z,88686.31
2022-11-24T22:03:56.368Z,88678.34
2022-11-24T22:06:23.922Z,88686.03
2022-11-24T22:08:50.900Z,88691.50
2022-11-24T22:11:21.279Z,88686.44
2022-11-24T22:13:49.128Z,88682.34
2022-11-24T22:16:21.191Z,88681.63
2022-11-24T22:18:49.622Z,88677.53
2022-11-24T22:21:19.128Z,88680.00
2022-11-24T22:23:45.950Z,88682.50
2022-11-24T22:26:18.222Z,88673.91
2022-11-24T22:28:45.658Z,88682.28
2022-11-24T22:31:24.317Z,88681.06
2022-11-24T22:33:52.069Z,88680.41
2022-11-24T22:36:20.620Z,88679.25
2022-11-24T22:38:48.291Z,88674.84
2022-11-24T22:41:19.152Z,88669.19
2022-11-24T22:43:46.823Z,88674.00
2022-11-24T22:46:16.565Z,88661.94
2022-11-24T22:48:45.203Z,88666.09
2022-11-24T22:51:18.798Z,88676.34
2022-11-24T22:53:50.497Z,88676.25
2022-11-24T22:56:17.603Z,88672.31
2022-11-24T22:58:44.579Z,88667.03
2022-11-24T23:01:20.174Z,88673.13
2022-11-24T23:03:47.616Z,88666.56
2022-11-24T23:06:19.847Z,88666.19
2022-11-24T23:08:47.394Z,88658.88
2022-11-24T23:11:20.088Z,88658.69
2022-11-24T23:14:03.423Z,88659.53
2022-11-24T23:16:30.522Z,88670.69
2022-11-24T23:18:57.840Z,88654.63
2022-11-24T23:21:27.952Z,88657.09
2022-11-24T23:23:55.920Z,88664.75
2022-11-24T23:26:31.392Z,88665.56
2022-11-24T23:28:58.542Z,88674.75
2022-11-24T23:31:27.576Z,88669.50
2022-11-24T23:33:59.407Z,88666.84
2022-11-24T23:36:28.293Z,88682.56
2022-11-24T23:38:55.251Z,88673.69
2022-11-24T23:41:24.729Z,88679.84
2022-11-24T23:43:52.259Z,88676.53
2022-11-24T23:46:21.887Z,88670.66
2022-11-24T23:48:50.143Z,88674.25
2022-11-24T23:51:22.729Z,88681.50
2022-11-24T23:53:50.348Z,88683.84
2022-11-24T23:56:20.191Z,88684.78
2022-11-24T23:58:47.514Z,88681.75
